createdAt,value
2022-08-26T00:01:10.673Z,23.69
2022-08-26T00:03:16.474Z,23.68
2022-08-26T00:05:24.263Z,23.69
2022-08-26T00:07:29.172Z,23.67
2022-08-26T00:09:37.267Z,23.58
2022-08-26T00:11:44.141Z,23.57
2022-08-26T00:13:49.663Z,23.51
2022-08-26T00:15:54.687Z,23.43
2022-08-26T00:18:00.577Z,23.40
2022-08-26T00:20:06.285Z,23.40
2022-08-26T00:22:14.095Z,23.39
2022-08-26T00:24:26.591Z,23.35
2022-08-26T00:26:33.661Z,23.30
2022-08-26T00:28:38.529Z,23.28
2022-08-26T00:30:48.143Z,23.28
2022-08-26T00:32:57.003Z,23.22
2022-08-26T00:35:01.904Z,23.17
2022-08-26T00:37:08.946Z,23.13
2022-08-26T00:39:17.924Z,23.09
2022-08-26T00:41:23.646Z,23.03
2022-08-26T00:43:29.097Z,22.96
2022-08-26T00:45:41.090Z,22.90
2022-08-26T00:47:50.767Z,22.78
2022-08-26T00:49:56.725Z,22.70
2022-08-26T00:52:05.142Z,22.64
2022-08-26T00:54:19.176Z,22.59
2022-08-26T00:56:29.455Z,22.57
2022-08-26T00:58:36.665Z,22.59
2022-08-26T01:00:41.778Z,22.58
2022-08-26T01:02:51.832Z,22.57
2022-08-26T01:04:58.987Z,22.58
2022-08-26T01:07:06.447Z,22.60
2022-08-26T01:09:11.937Z,22.59
2022-08-26T01:11:19.573Z,22.64
2022-08-26T01:13:24.644Z,22.64
2022-08-26T01:15:33.388Z,22.66
2022-08-26T01:17:40.225Z,22.65
2022-08-26T01:19:48.775Z,22.65
2022-08-26T01:21:59.748Z,22.63
2022-08-26T01:24:08.406Z,22.61
2022-08-26T01:26:20.218Z,22.60
2022-08-26T01:28:30.274Z,22.59
2022-08-26T01:30:36.853Z,22.57
2022-08-26T01:32:43.232Z,22.55
2022-08-26T01:34:50.059Z,22.54
2022-08-26T01:37:01.188Z,22.54
2022-08-26T01:39:10.211Z,22.49
2022-08-26T01:41:19.981Z,22.47
2022-08-26T01:43:35.724Z,22.44
2022-08-26T01:45:43.794Z,22.45
2022-08-26T01:47:56.463Z,22.45
2022-08-26T01:50:04.990Z,22.45
2022-08-26T01:52:11.329Z,22.37
2022-08-26T01:54:20.657Z,22.35
2022-08-26T01:56:33.266Z,22.37
2022-08-26T01:58:45.733Z,22.38
2022-08-26T02:00:51.429Z,22.37
2022-08-26T02:03:12.837Z,22.34
2022-08-26T02:05:22.774Z,22.32
2022-08-26T02:07:29.137Z,22.31
2022-08-26T02:09:41.305Z,22.32
2022-08-26T02:11:47.190Z,22.31
2022-08-26T02:13:56.983Z,22.27
2022-08-26T02:16:05.362Z,22.23
2022-08-26T02:18:14.317Z,22.22
2022-08-26T02:20:21.966Z,22.23
2022-08-26T02:22:27.175Z,22.25
2022-08-26T02:24:49.517Z,22.29
2022-08-26T02:26:55.372Z,22.16
2022-08-26T02:29:10.218Z,22.09
2022-08-26T02:31:15.614Z,21.97
2022-08-26T02:33:20.644Z,21.92
2022-08-26T02:35:26.681Z,21.88
2022-08-26T02:37:34.032Z,21.81
2022-08-26T02:39:44.009Z,21.74
2022-08-26T02:41:49.410Z,21.67
2022-08-26T02:43:54.276Z,21.72
2022-08-26T02:46:01.729Z,21.73
2022-08-26T02:48:13.575Z,21.79
2022-08-26T02:50:18.375Z,21.80
2022-08-26T02:52:23.601Z,21.80
2022-08-26T02:54:28.214Z,21.77
2022-08-26T02:56:36.339Z,21.78
2022-08-26T02:58:41.370Z,21.76
2022-08-26T03:00:53.006Z,21.74
2022-08-26T03:02:58.669Z,21.68
2022-08-26T03:05:03.529Z,21.69
2022-08-26T03:07:09.550Z,21.67
2022-08-26T03:09:18.823Z,21.68
2022-08-26T03:11:24.023Z,21.67
2022-08-26T03:13:32.935Z,21.70
2022-08-26T03:15:38.504Z,21.62
2022-08-26T03:17:43.764Z,21.64
2022-08-26T03:19:51.819Z,21.65
2022-08-26T03:21:59.210Z,21.63
2022-08-26T03:24:04.112Z,21.59
2022-08-26T03:26:11.041Z,21.58
2022-08-26T03:28:15.998Z,21.58
2022-08-26T03:30:39.282Z,21.60
2022-08-26T03:32:50.407Z,21.60
2022-08-26T03:34:55.406Z,21.62
2022-08-26T03:37:00.658Z,21.62
2022-08-26T03:39:05.625Z,21.62
2022-08-26T03:41:12.406Z,21.61
2022-08-26T03:43:18.813Z,21.61
2022-08-26T03:45:26.456Z,21.60
2022-08-26T03:47:31.353Z,21.58
2022-08-26T03:49:37.042Z,21.58
2022-08-26T03:51:42.238Z,21.59
2022-08-26T03:53:47.365Z,21.54
2022-08-26T03:55:53.196Z,21.52
2022-08-26T03:57:58.121Z,21.49
2022-08-26T04:00:02.997Z,21.45
2022-08-26T04:02:16.298Z,21.38
2022-08-26T04:04:22.831Z,21.34
2022-08-26T04:06:31.223Z,21.33
2022-08-26T04:08:36.057Z,21.32
2022-08-26T04:10:41.148Z,21.32
2022-08-26T04:12:46.009Z,21.28
2022-08-26T04:14:50.910Z,21.28
2022-08-26T04:16:59.294Z,21.30
2022-08-26T04:19:06.913Z,21.29
2022-08-26T04:21:12.754Z,21.33
2022-08-26T04:23:20.325Z,21.34
2022-08-26T04:25:25.289Z,21.33
2022-08-26T04:27:30.930Z,21.29
2022-08-26T04:29:35.873Z,21.24
2022-08-26T04:31:41.402Z,21.28
2022-08-26T04:33:47.778Z,21.29
2022-08-26T04:36:03.268Z,21.30
2022-08-26T04:38:09.278Z,21.24
2022-08-26T04:40:14.655Z,21.16
2022-08-26T04:42:22.800Z,21.13
2022-08-26T04:44:32.594Z,21.13
2022-08-26T04:46:39.787Z,21.14
2022-08-26T04:48:48.967Z,21.18
2022-08-26T04:50:54.011Z,21.16
2022-08-26T04:53:02.233Z,21.17
2022-08-26T04:55:10.411Z,21.20
2022-08-26T04:57:16.882Z,21.25
2022-08-26T04:59:21.821Z,21.28
2022-08-26T05:01:26.979Z,21.29
2022-08-26T05:03:32.181Z,21.31
2022-08-26T05:05:36.958Z,21.30
2022-08-26T05:07:41.795Z,21.24
2022-08-26T05:09:49.238Z,21.22
2022-08-26T05:11:54.452Z,21.20
2022-08-26T05:14:02.223Z,21.17
2022-08-26T05:16:09.073Z,21.21
2022-08-26T05:18:18.251Z,21.26
2022-08-26T05:20:25.757Z,21.32
2022-08-26T05:22:31.199Z,21.38
2022-08-26T05:24:36.424Z,21.40
2022-08-26T05:26:45.853Z,21.41
2022-08-26T05:28:50.685Z,21.42
2022-08-26T05:30:59.781Z,21.42
2022-08-26T05:33:05.450Z,21.44
2022-08-26T05:35:10.986Z,21.45
2022-08-26T05:37:17.145Z,21.52
2022-08-26T05:39:24.599Z,21.52
2022-08-26T05:41:36.290Z,21.50
2022-08-26T05:43:44.247Z,21.46
2022-08-26T05:45:52.219Z,21.41
2022-08-26T05:47:57.173Z,21.44
2022-08-26T05:50:05.547Z,21.46
2022-08-26T05:52:10.489Z,21.46
2022-08-26T05:54:21.325Z,21.48
2022-08-26T05:56:27.988Z,21.50
2022-08-26T05:58:32.871Z,21.54
2022-08-26T06:00:40.374Z,21.60
2022-08-26T06:02:48.448Z,21.69
2022-08-26T06:04:53.483Z,21.77
2022-08-26T06:06:58.610Z,21.86
2022-08-26T06:09:06.527Z,21.96
2022-08-26T06:11:18.639Z,22.02
2022-08-26T06:13:25.619Z,22.07
2022-08-26T06:15:30.705Z,22.12
2022-08-26T06:17:38.590Z,22.20
2022-08-26T06:19:43.479Z,22.24
2022-08-26T06:21:53.942Z,22.24
2022-08-26T06:24:15.791Z,22.29
2022-08-26T06:26:20.703Z,22.37
2022-08-26T06:28:26.043Z,22.38
2022-08-26T06:30:30.914Z,22.43
2022-08-26T06:32:38.748Z,22.53
2022-08-26T06:34:43.968Z,22.70
2022-08-26T06:36:49.999Z,22.83
2022-08-26T06:38:58.986Z,22.88
2022-08-26T06:41:03.819Z,22.89
2022-08-26T06:43:08.967Z,22.89
2022-08-26T06:45:14.017Z,22.93
2022-08-26T06:47:18.910Z,23.00
2022-08-26T06:49:26.676Z,23.07
2022-08-26T06:51:34.622Z,23.14
2022-08-26T06:53:41.119Z,23.13
2022-08-26T06:55:48.252Z,23.24
2022-08-26T06:57:57.179Z,23.25
2022-08-26T07:00:04.782Z,23.34
2022-08-26T07:02:10.510Z,23.43
2022-08-26T07:04:22.485Z,23.50
2022-08-26T07:06:31.216Z,23.60
2022-08-26T07:08:36.730Z,23.68
2022-08-26T07:10:42.562Z,23.78
2022-08-26T07:12:49.133Z,23.89
2022-08-26T07:14:54.029Z,24.05
2022-08-26T07:16:59.522Z,24.24
2022-08-26T07:19:11.087Z,24.34
2022-08-26T07:21:18.419Z,24.37
2022-08-26T07:23:26.274Z,24.46
2022-08-26T07:25:31.227Z,24.54
2022-08-26T07:27:37.506Z,24.62
2022-08-26T07:29:44.882Z,24.71
2022-08-26T07:31:49.787Z,24.74
2022-08-26T07:33:54.612Z,24.71
2022-08-26T07:35:59.506Z,24.72
2022-08-26T07:38:06.741Z,24.82
2022-08-26T07:40:14.603Z,24.89
2022-08-26T07:42:22.121Z,24.94
2022-08-26T07:44:27.362Z,24.92
2022-08-26T07:46:32.260Z,24.93
2022-08-26T07:48:37.916Z,24.91
2022-08-26T07:50:49.224Z,24.99
2022-08-26T07:52:56.182Z,25.11
2022-08-26T07:55:04.554Z,25.17
2022-08-26T07:57:12.018Z,25.17
2022-08-26T07:59:17.819Z,25.18
2022-08-26T08:01:23.784Z,25.25
2022-08-26T08:03:28.971Z,25.33
2022-08-26T08:05:36.896Z,25.34
2022-08-26T08:07:47.276Z,25.38
2022-08-26T08:09:52.251Z,25.46
2022-08-26T08:11:57.215Z,25.50
2022-08-26T08:14:08.508Z,25.56
2022-08-26T08:16:17.033Z,25.61
2022-08-26T08:18:23.416Z,25.64
2022-08-26T08:20:30.101Z,25.70
2022-08-26T08:22:35.640Z,25.82
2022-08-26T08:24:42.826Z,25.93
2022-08-26T08:26:47.869Z,26.02
2022-08-26T08:28:53.401Z,26.08
2022-08-26T08:31:02.375Z,26.15
2022-08-26T08:33:08.576Z,26.19
2022-08-26T08:35:17.530Z,26.23
2022-08-26T08:37:23.111Z,26.26
2022-08-26T08:39:29.127Z,26.34
2022-08-26T08:41:46.823Z,26.40
2022-08-26T08:43:53.855Z,26.43
2022-08-26T08:46:07.051Z,26.54
2022-08-26T08:48:17.373Z,26.62
2022-08-26T08:50:28.940Z,26.75
2022-08-26T08:52:37.967Z,26.79
2022-08-26T08:54:42.916Z,26.78
2022-08-26T08:56:55.500Z,26.81
2022-08-26T08:59:15.618Z,26.63
2022-08-26T09:01:31.017Z,26.72
2022-08-26T09:03:55.760Z,26.90
2022-08-26T09:06:04.490Z,27.02
2022-08-26T09:08:14.704Z,27.22
2022-08-26T09:10:32.271Z,27.34
2022-08-26T09:12:38.149Z,27.44
2022-08-26T09:14:43.327Z,27.47
2022-08-26T09:17:02.503Z,27.48
2022-08-26T09:19:18.825Z,27.42
2022-08-26T09:21:26.197Z,27.48
2022-08-26T09:23:33.276Z,27.57
2022-08-26T09:25:49.487Z,27.61
2022-08-26T09:27:55.873Z,27.71
2022-08-26T09:30:02.505Z,27.77
2022-08-26T09:32:24.347Z,27.71
2022-08-26T09:34:31.188Z,27.80
2022-08-26T09:36:41.158Z,27.96
2022-08-26T09:38:46.832Z,27.95
2022-08-26T09:40:59.671Z,27.98
2022-08-26T09:43:23.204Z,27.99
2022-08-26T09:45:31.841Z,28.10
2022-08-26T09:47:42.170Z,28.20
2022-08-26T09:49:47.459Z,28.27
2022-08-26T09:52:07.452Z,28.41
2022-08-26T09:54:30.533Z,28.50
2022-08-26T09:56:39.350Z,28.55
2022-08-26T09:58:47.227Z,28.66
2022-08-26T10:00:58.644Z,28.77
2022-08-26T10:03:09.756Z,28.85
2022-08-26T10:05:31.201Z,28.77
2022-08-26T10:07:44.920Z,28.61
2022-08-26T10:09:51.752Z,28.49
2022-08-26T10:11:59.049Z,28.55
2022-08-26T10:14:07.803Z,28.56
2022-08-26T10:16:20.230Z,28.50
2022-08-26T10:18:34.135Z,28.58
2022-08-26T10:20:44.574Z,28.61
2022-08-26T10:22:58.130Z,28.69
2022-08-26T10:25:08.322Z,28.65
2022-08-26T10:27:25.772Z,28.77
2022-08-26T10:29:36.679Z,28.88
2022-08-26T10:31:45.467Z,28.97
2022-08-26T10:33:58.635Z,29.13
2022-08-26T10:36:39.284Z,29.24
2022-08-26T10:38:51.811Z,29.28
2022-08-26T10:41:03.269Z,29.30
2022-08-26T10:43:20.915Z,29.27
2022-08-26T10:45:30.255Z,29.43
2022-08-26T10:47:41.266Z,29.61
2022-08-26T10:49:50.031Z,29.68
2022-08-26T10:52:05.492Z,29.76
2022-08-26T10:54:27.343Z,29.83
2022-08-26T10:56:46.582Z,29.86
2022-08-26T10:59:00.878Z,29.87
2022-08-26T11:01:26.656Z,29.96
2022-08-26T11:03:39.994Z,29.92
2022-08-26T11:05:47.546Z,29.90
2022-08-26T11:07:56.264Z,30.00
2022-08-26T11:10:03.624Z,30.09
2022-08-26T11:12:10.002Z,30.17
2022-08-26T11:14:46.186Z,30.23
2022-08-26T11:17:00.223Z,30.16
2022-08-26T11:19:05.281Z,30.19
2022-08-26T11:21:49.568Z,30.28
2022-08-26T11:23:58.367Z,30.31
2022-08-26T11:26:35.774Z,30.42
2022-08-26T11:28:45.769Z,30.43
2022-08-26T11:30:58.218Z,30.39
2022-08-26T11:33:03.563Z,30.34
2022-08-26T11:35:12.211Z,30.31
2022-08-26T11:39:38.939Z,30.44
2022-08-26T11:41:47.301Z,30.49
2022-08-26T11:43:53.026Z,30.57
2022-08-26T11:46:05.459Z,30.66
2022-08-26T11:48:18.476Z,30.72
2022-08-26T11:50:26.233Z,30.76
2022-08-26T11:52:31.216Z,30.71
2022-08-26T11:54:40.118Z,30.73
2022-08-26T11:56:47.030Z,30.79
2022-08-26T11:58:59.735Z,30.75
2022-08-26T12:01:09.776Z,30.57
2022-08-26T12:03:22.997Z,30.59
2022-08-26T12:05:32.185Z,30.68
2022-08-26T12:07:38.345Z,30.74
2022-08-26T12:10:00.507Z,30.80
2022-08-26T12:12:16.160Z,30.88
2022-08-26T12:14:24.337Z,30.90
2022-08-26T12:16:31.113Z,31.04
2022-08-26T12:18:38.868Z,31.12
2022-08-26T12:20:54.242Z,31.02
2022-08-26T12:23:00.305Z,30.84
2022-08-26T12:25:11.361Z,30.99
2022-08-26T12:27:20.601Z,30.88
2022-08-26T12:29:28.913Z,30.91
2022-08-26T12:31:35.786Z,30.93
2022-08-26T12:33:41.448Z,30.97
2022-08-26T12:35:47.729Z,31.02
2022-08-26T12:37:56.153Z,31.07
2022-08-26T12:40:30.760Z,31.10
2022-08-26T12:42:44.221Z,31.01
2022-08-26T12:44:54.076Z,31.11
2022-08-26T12:47:05.453Z,31.16
2022-08-26T12:49:10.743Z,31.23
2022-08-26T12:51:25.724Z,31.31
2022-08-26T12:53:32.626Z,31.36
2022-08-26T12:55:44.040Z,31.43
2022-08-26T12:57:49.509Z,31.27
2022-08-26T12:59:54.473Z,31.32
2022-08-26T13:01:59.417Z,31.27
2022-08-26T13:04:04.684Z,31.22
2022-08-26T13:06:15.607Z,31.25
2022-08-26T13:08:29.108Z,31.28
2022-08-26T13:10:41.589Z,31.31
2022-08-26T13:12:46.887Z,31.32
2022-08-26T13:14:51.818Z,31.41
2022-08-26T13:16:56.842Z,31.50
2022-08-26T13:19:04.083Z,31.55
2022-08-26T13:21:15.915Z,31.57
2022-08-26T13:23:21.364Z,31.33
2022-08-26T13:25:26.303Z,31.39
2022-08-26T13:27:33.793Z,31.27
2022-08-26T13:29:39.178Z,31.15
2022-08-26T13:31:48.199Z,31.08
2022-08-26T13:33:53.166Z,30.99
2022-08-26T13:35:58.331Z,30.80
2022-08-26T13:38:03.432Z,30.62
2022-08-26T13:40:09.709Z,30.43
2022-08-26T13:42:14.657Z,30.11
2022-08-26T13:44:22.258Z,29.90
2022-08-26T13:46:27.704Z,27.61
2022-08-26T13:48:34.052Z,26.19
2022-08-26T13:50:39.410Z,25.49
2022-08-26T13:52:44.305Z,24.91
2022-08-26T13:54:48.909Z,24.55
2022-08-26T13:56:53.785Z,23.69
2022-08-26T13:58:59.541Z,23.07
2022-08-26T14:01:07.178Z,22.95
2022-08-26T14:03:13.567Z,22.89
2022-08-26T14:05:18.894Z,22.98
2022-08-26T14:07:24.059Z,22.99
2022-08-26T14:09:29.009Z,22.96
2022-08-26T14:11:41.217Z,23.02
2022-08-26T14:13:59.008Z,22.92
2022-08-26T14:16:07.879Z,22.83
2022-08-26T14:18:17.016Z,22.13
2022-08-26T14:20:27.291Z,21.65
2022-08-26T14:22:33.105Z,20.10
2022-08-26T14:24:38.027Z,19.92
2022-08-26T14:26:43.291Z,19.36
2022-08-26T14:28:48.235Z,18.97
2022-08-26T14:30:58.093Z,18.83
2022-08-26T14:33:05.823Z,19.02
2022-08-26T14:35:13.340Z,19.12
2022-08-26T14:37:18.282Z,19.23
2022-08-26T14:39:23.086Z,19.47
2022-08-26T14:41:28.807Z,19.61
2022-08-26T14:43:33.770Z,19.74
2022-08-26T14:45:43.507Z,19.83
2022-08-26T14:47:53.146Z,19.98
2022-08-26T14:50:00.701Z,20.12
2022-08-26T14:52:06.006Z,20.15
2022-08-26T14:54:14.093Z,20.15
2022-08-26T14:56:19.719Z,20.24
2022-08-26T14:58:24.585Z,20.26
2022-08-26T15:00:33.714Z,20.31
2022-08-26T15:02:39.035Z,20.37
2022-08-26T15:04:44.414Z,20.47
2022-08-26T15:06:53.086Z,20.58
2022-08-26T15:08:58.021Z,20.64
2022-08-26T15:11:03.312Z,20.75
2022-08-26T15:13:08.410Z,20.79
2022-08-26T15:15:14.060Z,20.61
2022-08-26T15:17:18.952Z,20.33
2022-08-26T15:19:23.886Z,20.33
2022-08-26T15:21:28.931Z,20.45
2022-08-26T15:23:36.557Z,20.64
2022-08-26T15:25:41.467Z,20.80
2022-08-26T15:27:46.367Z,20.83
2022-08-26T15:29:51.829Z,20.91
2022-08-26T15:31:57.333Z,21.00
2022-08-26T15:34:04.135Z,20.98
2022-08-26T15:36:11.272Z,21.00
2022-08-26T15:38:16.118Z,20.96
2022-08-26T15:40:23.766Z,20.90
2022-08-26T15:42:28.731Z,21.00
2022-08-26T15:44:34.177Z,21.15
2022-08-26T15:46:39.720Z,21.35
2022-08-26T15:48:45.419Z,21.48
2022-08-26T15:50:54.142Z,21.62
2022-08-26T15:52:59.693Z,21.70
2022-08-26T15:55:04.680Z,21.76
2022-08-26T15:57:14.399Z,21.77
2022-08-26T15:59:21.070Z,21.85
2022-08-26T16:01:27.717Z,21.87
2022-08-26T16:03:33.069Z,21.88
2022-08-26T16:05:40.711Z,21.92
2022-08-26T16:07:45.655Z,21.92
2022-08-26T16:09:54.045Z,21.95
2022-08-26T16:12:00.195Z,21.99
2022-08-26T16:14:08.439Z,22.05
2022-08-26T16:16:13.663Z,22.10
2022-08-26T16:18:20.447Z,22.14
2022-08-26T16:20:28.852Z,22.18
2022-08-26T16:22:33.946Z,22.15
2022-08-26T16:24:39.687Z,22.13
2022-08-26T16:26:46.250Z,22.14
2022-08-26T16:28:51.436Z,22.13
2022-08-26T16:30:59.098Z,22.16
2022-08-26T16:33:03.978Z,22.14
2022-08-26T16:35:10.157Z,22.14
2022-08-26T16:37:14.998Z,22.15
2022-08-26T16:39:19.967Z,22.14
2022-08-26T16:41:25.649Z,22.06
2022-08-26T16:43:31.143Z,22.00
2022-08-26T16:45:38.250Z,22.01
2022-08-26T16:47:49.814Z,22.02
2022-08-26T16:49:54.833Z,22.04
2022-08-26T16:51:59.851Z,22.01
2022-08-26T16:54:05.878Z,22.04
2022-08-26T16:56:17.069Z,22.09
2022-08-26T16:58:22.801Z,22.04
2022-08-26T17:00:30.482Z,22.01
2022-08-26T17:02:35.491Z,21.99
2022-08-26T17:04:47.140Z,21.95
2022-08-26T17:06:55.448Z,21.87
2022-08-26T17:09:00.148Z,21.87
2022-08-26T17:11:05.076Z,21.90
2022-08-26T17:13:10.078Z,21.95
2022-08-26T17:15:15.533Z,21.92
2022-08-26T17:17:20.705Z,21.89
2022-08-26T17:19:25.630Z,21.93
2022-08-26T17:21:35.034Z,21.87
2022-08-26T17:23:41.016Z,21.50
2022-08-26T17:25:46.143Z,21.31
2022-08-26T17:27:50.859Z,21.33
2022-08-26T17:29:55.826Z,21.44
2022-08-26T17:32:00.718Z,21.50
2022-08-26T17:34:05.698Z,21.55
2022-08-26T17:36:12.035Z,21.62
2022-08-26T17:38:19.545Z,21.76
2022-08-26T17:40:29.267Z,21.84
2022-08-26T17:42:34.283Z,21.90
2022-08-26T17:44:39.227Z,21.92
2022-08-26T17:46:44.145Z,21.90
2022-08-26T17:48:49.765Z,21.95
2022-08-26T17:50:54.832Z,21.97
2022-08-26T17:53:00.466Z,21.92
2022-08-26T17:55:08.934Z,21.79
2022-08-26T17:57:13.768Z,21.69
2022-08-26T17:59:19.019Z,21.52
2022-08-26T18:01:26.166Z,21.55
2022-08-26T18:03:31.267Z,21.56
2022-08-26T18:05:36.262Z,21.48
2022-08-26T18:07:44.089Z,21.43
2022-08-26T18:09:49.264Z,21.37
2022-08-26T18:11:57.231Z,21.42
2022-08-26T18:14:02.835Z,21.42
2022-08-26T18:16:09.038Z,21.40
2022-08-26T18:18:14.542Z,21.47
2022-08-26T18:20:22.662Z,21.52
2022-08-26T18:22:27.649Z,21.45
2022-08-26T18:24:32.938Z,21.45
2022-08-26T18:26:44.637Z,21.38
2022-08-26T18:28:52.592Z,21.39
2022-08-26T18:30:57.533Z,21.39
2022-08-26T18:33:03.188Z,21.41
2022-08-26T18:35:09.014Z,21.41
2022-08-26T18:37:14.765Z,21.42
2022-08-26T18:39:22.165Z,21.51
2022-08-26T18:41:30.339Z,21.58
2022-08-26T18:43:36.317Z,21.64
2022-08-26T18:45:43.916Z,21.71
2022-08-26T18:47:48.881Z,21.76
2022-08-26T18:49:53.816Z,21.80
2022-08-26T18:51:58.802Z,21.76
2022-08-26T18:54:06.985Z,21.71
2022-08-26T18:56:13.258Z,21.68
2022-08-26T18:58:20.545Z,21.73
2022-08-26T19:00:25.743Z,21.76
2022-08-26T19:02:33.412Z,21.81
2022-08-26T19:04:38.440Z,21.85
2022-08-26T19:06:44.225Z,21.86
2022-08-26T19:08:50.196Z,21.82
2022-08-26T19:10:55.195Z,21.83
2022-08-26T19:13:02.402Z,21.82
2022-08-26T19:15:08.670Z,21.81
2022-08-26T19:17:14.385Z,21.83
2022-08-26T19:19:23.915Z,21.80
2022-08-26T19:21:28.793Z,21.87
2022-08-26T19:23:34.099Z,21.90
2022-08-26T19:25:43.362Z,21.93
2022-08-26T19:27:48.473Z,21.97
2022-08-26T19:29:53.090Z,21.97
2022-08-26T19:31:58.791Z,22.00
2022-08-26T19:34:05.401Z,22.01
2022-08-26T19:36:17.495Z,22.06
2022-08-26T19:38:22.382Z,22.07
2022-08-26T19:40:27.570Z,22.10
2022-08-26T19:42:32.455Z,22.11
2022-08-26T19:44:49.786Z,22.15
2022-08-26T19:46:54.939Z,22.18
2022-08-26T19:49:00.771Z,22.19
2022-08-26T19:51:05.967Z,22.12
2022-08-26T19:53:13.493Z,22.02
2022-08-26T19:55:20.927Z,21.90
2022-08-26T19:57:25.856Z,21.80
2022-08-26T19:59:33.098Z,21.65
2022-08-26T20:01:38.243Z,21.66
2022-08-26T20:03:45.134Z,21.70
2022-08-26T20:05:50.143Z,21.71
2022-08-26T20:07:55.335Z,21.81
2022-08-26T20:10:03.603Z,21.90
2022-08-26T20:12:10.650Z,21.95
2022-08-26T20:14:16.794Z,22.01
2022-08-26T20:16:23.136Z,22.04
2022-08-26T20:18:40.896Z,22.03
2022-08-26T20:20:58.257Z,22.05
2022-08-26T20:23:05.273Z,21.93
2022-08-26T20:25:13.522Z,21.66
2022-08-26T20:27:18.475Z,21.38
2022-08-26T20:29:23.385Z,21.21
2022-08-26T20:31:30.030Z,20.84
2022-08-26T20:33:39.854Z,20.70
2022-08-26T20:35:51.595Z,20.62
2022-08-26T20:37:56.575Z,20.58
2022-08-26T20:40:01.271Z,20.45
2022-08-26T20:42:20.026Z,20.42
2022-08-26T20:44:25.746Z,20.38
2022-08-26T20:46:31.177Z,20.35
2022-08-26T20:48:36.263Z,20.38
2022-08-26T20:50:41.828Z,20.40
2022-08-26T20:52:46.849Z,20.43
2022-08-26T20:54:51.763Z,20.48
2022-08-26T20:56:57.683Z,20.57
2022-08-26T20:59:06.808Z,20.55
2022-08-26T21:01:20.055Z,20.50
2022-08-26T21:03:25.818Z,20.54
2022-08-26T21:05:30.736Z,20.68
2022-08-26T21:07:35.654Z,20.75
2022-08-26T21:09:41.379Z,20.76
2022-08-26T21:11:47.683Z,20.60
2022-08-26T21:14:17.100Z,20.44
2022-08-26T21:16:20.297Z,20.44
2022-08-26T21:18:25.225Z,20.52
2022-08-26T21:20:30.631Z,20.53
2022-08-26T21:22:35.589Z,20.59
2022-08-26T21:24:40.482Z,20.66
2022-08-26T21:26:45.970Z,20.66
2022-08-26T21:28:50.939Z,20.63
2022-08-26T21:30:55.595Z,20.47
2022-08-26T21:33:03.166Z,20.40
2022-08-26T21:35:08.976Z,20.49
2022-08-26T21:37:15.358Z,20.62
2022-08-26T21:39:21.987Z,20.57
2022-08-26T21:41:28.036Z,20.43
2022-08-26T21:43:34.944Z,20.39
2022-08-26T21:45:42.811Z,20.42
2022-08-26T21:47:47.902Z,20.49
2022-08-26T21:49:55.880Z,20.61
2022-08-26T21:52:01.729Z,20.69
2022-08-26T21:54:11.416Z,20.74
2022-08-26T21:56:19.129Z,20.82
2022-08-26T21:58:23.985Z,20.81
2022-08-26T22:00:28.847Z,20.73
2022-08-26T22:02:34.739Z,20.72
2022-08-26T22:04:39.607Z,20.67
2022-08-26T22:06:48.879Z,20.65
2022-08-26T22:08:54.117Z,20.61
2022-08-26T22:11:00.131Z,20.55
2022-08-26T22:13:06.499Z,20.54
2022-08-26T22:15:12.639Z,20.44
2022-08-26T22:17:17.707Z,20.49
2022-08-26T22:19:23.461Z,20.58
2022-08-26T22:21:30.654Z,20.56
2022-08-26T22:23:39.257Z,20.57
2022-08-26T22:25:44.131Z,20.54
2022-08-26T22:27:49.029Z,20.50
2022-08-26T22:29:54.160Z,20.60
2022-08-26T22:32:00.040Z,20.64
2022-08-26T22:34:06.484Z,20.72
2022-08-26T22:36:19.004Z,20.70
2022-08-26T22:38:25.796Z,20.71
2022-08-26T22:40:34.826Z,20.73
2022-08-26T22:42:39.871Z,20.68
2022-08-26T22:44:44.744Z,20.72
2022-08-26T22:46:50.294Z,20.77
2022-08-26T22:48:56.031Z,20.83
2022-08-26T22:51:00.952Z,20.85
2022-08-26T22:53:06.397Z,20.81
2022-08-26T22:55:13.145Z,20.75
2022-08-26T22:57:20.643Z,20.73
2022-08-26T22:59:25.590Z,20.77
2022-08-26T23:01:30.958Z,20.82
2022-08-26T23:03:36.426Z,20.83
2022-08-26T23:05:41.978Z,20.85
2022-08-26T23:07:46.821Z,20.83
2022-08-26T23:09:51.725Z,20.76
2022-08-26T23:11:56.726Z,20.71
2022-08-26T23:14:06.278Z,20.64
2022-08-26T23:16:13.582Z,20.52
2022-08-26T23:18:19.151Z,20.48
2022-08-26T23:20:24.081Z,20.50
2022-08-26T23:22:29.084Z,20.53
2022-08-26T23:24:33.995Z,20.48
2022-08-26T23:26:39.322Z,20.46
2022-08-26T23:28:44.230Z,20.42
2022-08-26T23:30:51.746Z,20.44
2022-08-26T23:32:57.092Z,20.49
2022-08-26T23:34:59.694Z,20.56
2022-08-26T23:37:06.760Z,20.60
2022-08-26T23:39:12.954Z,20.58
2022-08-26T23:41:18.110Z,20.64
2022-08-26T23:43:23.141Z,20.63
2022-08-26T23:45:29.448Z,20.65
2022-08-26T23:47:37.497Z,20.71
2022-08-26T23:49:42.517Z,20.69
2022-08-26T23:52:00.016Z,20.66
2022-08-26T23:54:05.150Z,20.60
2022-08-26T23:56:16.510Z,20.64
2022-08-26T23:58:23.152Z,20.68
